EGKB/BQH METAR and TAF weather

Enter ICAO airport designator
Station Type Date Time Source
EGKB METAR 2019/12/12 22:20 UTC NOAA

EGKB 122220Z 21011KT 9999 FEW007 06/06 Q0974


Station Type Date Time Source
EGKB Decoded METAR 2019/12/12 22:20 UTC NOAA

Biggin Hill , United Kingdom (EGKB) 51-19N 000-02E
Dec 12, 2019 - 05:20 PM EST / 2019.12.12 2220 UTC
Wind: from the SSW (210 degrees) at 13 MPH (11 KT):0
Visibility: greater than 7 mile(s):0
Sky conditions: mostly clear
Temperature: 42 F (6 C)
Dew Point: 42 F (6 C)
Relative Humidity: 100%
Pressure (altimeter): 28.76 in. Hg (0974 hPa)
ob: EGKB 122220Z 21011KT 9999 FEW007 06/06 Q0974
cycle: 22

Station Type Date Time Source
EGKB TAF 2019/07/13 18:09 UTC NOAA

TAF EGKB 131706Z 1318/1422 03009KT 9999 SCT040 PROB30
TEMPO 1318/1320 8000 -SHRA

Example: see airport list